createdAt,value
2018-11-22T00:00:23.867Z,2.60
2018-11-22T00:02:52.272Z,2.60
2018-11-22T00:05:19.389Z,2.70
2018-11-22T00:07:47.521Z,2.60
2018-11-22T00:10:14.496Z,2.60
2018-11-22T00:12:41.540Z,2.50
2018-11-22T00:15:10.344Z,2.50
2018-11-22T00:17:37.578Z,2.50
2018-11-22T00:20:04.670Z,2.50
2018-11-22T00:22:31.667Z,2.50
2018-11-22T00:24:58.670Z,2.40
2018-11-22T00:27:25.695Z,2.50
2018-11-22T00:29:52.710Z,2.40
2018-11-22T00:32:19.750Z,2.40
2018-11-22T00:34:46.741Z,2.40
2018-11-22T00:37:13.744Z,2.40
2018-11-22T00:39:40.768Z,2.40
2018-11-22T00:42:07.985Z,2.40
2018-11-22T00:44:34.969Z,2.40
2018-11-22T00:47:01.977Z,2.40
2018-11-22T00:49:29.054Z,2.40
2018-11-22T00:51:56.042Z,2.40
2018-11-22T00:54:23.033Z,2.40
2018-11-22T00:56:50.056Z,2.40
2018-11-22T00:59:17.071Z,2.40
2018-11-22T01:01:44.050Z,2.30
2018-11-22T01:04:11.073Z,2.30
2018-11-22T01:06:38.077Z,2.30
2018-11-22T01:09:08.746Z,2.20
2018-11-22T01:11:35.787Z,2.20
2018-11-22T01:14:02.769Z,2.20
2018-11-22T01:16:29.764Z,2.20
2018-11-22T01:18:56.808Z,2.20
2018-11-22T01:21:23.803Z,2.20
2018-11-22T01:23:50.787Z,2.20
2018-11-22T01:26:17.821Z,2.20
2018-11-22T01:28:44.811Z,2.20
2018-11-22T01:31:11.781Z,2.20
2018-11-22T01:33:38.793Z,2.30
2018-11-22T01:36:05.799Z,2.30
2018-11-22T01:38:32.812Z,2.30
2018-11-22T01:40:59.802Z,2.30
2018-11-22T01:43:26.834Z,2.30
2018-11-22T01:45:53.840Z,2.40
2018-11-22T01:48:20.868Z,2.30
2018-11-22T01:50:47.861Z,2.30
2018-11-22T01:53:14.873Z,2.30
2018-11-22T01:55:41.863Z,2.20
2018-11-22T01:58:08.904Z,2.30
2018-11-22T02:00:35.932Z,2.30
2018-11-22T02:03:02.942Z,2.20
2018-11-22T02:05:29.967Z,2.20
2018-11-22T02:07:56.948Z,2.10
2018-11-22T02:10:24.532Z,2.20
2018-11-22T02:12:51.535Z,2.20
2018-11-22T02:15:20.101Z,2.20
2018-11-22T02:17:47.138Z,2.20
2018-11-22T02:20:18.707Z,2.10
2018-11-22T02:22:45.799Z,2.20
2018-11-22T02:25:13.666Z,2.30
2018-11-22T02:27:40.694Z,2.20
2018-11-22T02:30:15.563Z,2.30
2018-11-22T02:32:43.509Z,2.20
2018-11-22T02:35:11.261Z,2.20
2018-11-22T02:37:38.356Z,2.30
2018-11-22T02:40:06.663Z,2.30
2018-11-22T02:42:33.654Z,2.20
2018-11-22T02:45:00.677Z,2.20
2018-11-22T02:47:27.692Z,2.10
2018-11-22T02:49:54.675Z,2.10
2018-11-22T02:52:21.731Z,2.20
2018-11-22T02:54:48.758Z,2.10
2018-11-22T02:57:15.756Z,2.20
2018-11-22T02:59:42.779Z,2.20
2018-11-22T03:02:09.792Z,2.30
2018-11-22T03:04:36.794Z,2.30
2018-11-22T03:07:03.916Z,2.20
2018-11-22T03:09:30.898Z,2.20
2018-11-22T03:11:57.885Z,2.20
2018-11-22T03:14:24.915Z,2.10
2018-11-22T03:16:51.932Z,2.10
2018-11-22T03:19:18.938Z,2.10
2018-11-22T03:21:45.965Z,2.20
2018-11-22T03:24:12.966Z,2.20
2018-11-22T03:26:39.966Z,2.20
2018-11-22T03:29:07.008Z,2.20
2018-11-22T03:31:34.095Z,2.20
2018-11-22T03:34:01.085Z,2.10
2018-11-22T03:36:28.088Z,2.20
2018-11-22T03:38:55.082Z,2.20
2018-11-22T03:41:22.104Z,2.10
2018-11-22T03:43:49.107Z,2.10
2018-11-22T03:46:16.105Z,2.20
2018-11-22T03:48:43.209Z,2.10
2018-11-22T03:51:10.198Z,2.10
2018-11-22T03:53:37.224Z,2.10
2018-11-22T03:56:04.277Z,2.10
2018-11-22T03:58:31.410Z,2.10
2018-11-22T04:00:58.445Z,2.10
2018-11-22T04:03:25.436Z,2.10
2018-11-22T04:05:52.463Z,2.20
2018-11-22T04:08:19.468Z,2.20
2018-11-22T04:10:46.472Z,2.20
2018-11-22T04:13:13.538Z,2.20
2018-11-22T04:15:40.558Z,2.30
2018-11-22T04:18:07.591Z,2.20
2018-11-22T04:20:34.560Z,2.10
2018-11-22T04:23:01.587Z,2.10
2018-11-22T04:25:28.663Z,2.10
2018-11-22T04:27:55.853Z,2.10
2018-11-22T04:30:24.248Z,2.10
2018-11-22T04:32:51.585Z,2.10
2018-11-22T04:35:19.379Z,2.10
2018-11-22T04:37:46.426Z,2.00
2018-11-22T04:40:14.465Z,2.10
2018-11-22T04:42:41.541Z,2.10
2018-11-22T04:45:09.093Z,2.10
2018-11-22T04:47:36.082Z,2.10
2018-11-22T04:50:03.903Z,2.10
2018-11-22T04:52:30.936Z,2.10
2018-11-22T04:54:57.955Z,2.10
2018-11-22T04:57:25.006Z,2.20
2018-11-22T04:59:52.057Z,2.20
2018-11-22T05:02:19.083Z,2.10
2018-11-22T05:04:46.084Z,2.00
2018-11-22T05:07:13.116Z,2.00
2018-11-22T05:09:40.121Z,2.00
2018-11-22T05:12:07.163Z,2.00
2018-11-22T05:14:34.150Z,2.00
2018-11-22T05:17:01.128Z,2.00
2018-11-22T05:19:28.144Z,2.00
2018-11-22T05:21:55.289Z,2.00
2018-11-22T05:24:22.303Z,2.00
2018-11-22T05:26:49.297Z,2.00
2018-11-22T05:29:16.466Z,2.00
2018-11-22T05:31:43.480Z,2.10
2018-11-22T05:34:10.543Z,2.10
2018-11-22T05:36:37.531Z,2.10
2018-11-22T05:39:06.456Z,2.10
2018-11-22T05:41:33.482Z,2.10
2018-11-22T05:44:00.471Z,2.10
2018-11-22T05:46:27.483Z,2.10
2018-11-22T05:48:54.483Z,2.00
2018-11-22T12:17:45.039Z,2.20
2018-11-22T12:20:13.283Z,2.20
2018-11-22T12:22:42.108Z,2.10
2018-11-22T12:25:11.318Z,1.90
2018-11-22T12:27:39.146Z,1.80
2018-11-22T12:30:09.550Z,1.90
2018-11-22T12:32:41.519Z,2.00
2018-11-22T12:35:11.759Z,2.20
2018-11-22T12:37:43.301Z,2.00
2018-11-22T12:40:10.287Z,1.90
2018-11-22T12:42:37.758Z,1.90
2018-11-22T12:45:07.036Z,1.90
2018-11-22T12:47:34.422Z,1.90
2018-11-22T12:50:02.090Z,1.90
2018-11-22T12:52:29.520Z,1.80
2018-11-22T12:54:57.070Z,1.90
2018-11-22T12:57:25.026Z,2.20
2018-11-22T12:59:52.619Z,2.20
2018-11-22T13:02:20.156Z,2.30
2018-11-22T13:04:47.644Z,2.20
2018-11-22T13:07:15.262Z,2.10
2018-11-22T13:09:42.665Z,1.90
2018-11-22T13:12:10.130Z,1.90
2018-11-22T13:14:37.538Z,1.70
2018-11-22T13:17:05.417Z,1.90
2018-11-22T13:19:32.869Z,1.90
2018-11-22T13:22:00.290Z,1.70
2018-11-22T13:24:27.669Z,1.60
2018-11-22T13:26:55.198Z,1.50
2018-11-22T13:29:22.568Z,1.40
2018-11-22T13:31:49.927Z,1.40
2018-11-22T13:34:17.338Z,1.20
2018-11-22T13:36:44.733Z,1.20
2018-11-22T13:39:12.178Z,1.20
2018-11-22T13:41:39.646Z,1.30
2018-11-22T13:44:07.150Z,1.30
2018-11-22T13:46:34.596Z,1.30
2018-11-22T13:49:01.989Z,1.30
2018-11-22T13:51:29.390Z,1.20
2018-11-22T13:53:56.830Z,1.20
2018-11-22T13:56:24.218Z,1.20
2018-11-22T13:58:51.674Z,1.30
2018-11-22T14:01:19.071Z,1.40
2018-11-22T14:03:46.501Z,1.40
2018-11-22T14:06:13.896Z,1.30
2018-11-22T14:08:41.261Z,1.30
2018-11-22T14:11:13.612Z,1.20
2018-11-22T14:13:36.165Z,1.10
2018-11-22T14:16:03.575Z,1.00
2018-11-22T14:18:31.057Z,1.00
2018-11-22T14:20:58.441Z,1.00
2018-11-22T14:23:25.881Z,0.90
2018-11-22T14:25:53.249Z,1.00
2018-11-22T14:28:20.644Z,1.10
2018-11-22T14:30:48.038Z,1.10
2018-11-22T14:33:15.504Z,1.10
2018-11-22T14:35:42.953Z,1.10
2018-11-22T14:38:10.356Z,1.10
2018-11-22T14:40:37.748Z,1.00
2018-11-22T14:43:05.149Z,1.00
2018-11-22T14:45:32.622Z,1.00
2018-11-22T14:48:01.354Z,1.20
2018-11-22T14:50:34.597Z,1.10
2018-11-22T14:53:07.256Z,1.10
2018-11-22T14:55:34.645Z,1.10
2018-11-22T14:58:02.212Z,1.00
2018-11-22T15:00:29.652Z,0.90
2018-11-22T15:02:57.028Z,1.00
2018-11-22T15:05:24.461Z,1.10
2018-11-22T15:07:51.836Z,1.20
2018-11-22T15:10:19.225Z,1.10
2018-11-22T15:12:47.143Z,1.00
2018-11-22T15:15:16.626Z,0.90
2018-11-22T15:17:44.041Z,0.80
2018-11-22T15:20:13.694Z,0.80
2018-11-22T15:22:41.806Z,1.00
2018-11-22T15:25:10.909Z,1.00
2018-11-22T15:27:38.317Z,1.10
2018-11-22T15:30:07.705Z,1.30
2018-11-22T15:32:35.566Z,1.20
2018-11-22T15:35:03.066Z,1.00
2018-11-22T15:37:30.473Z,0.80
2018-11-22T15:39:57.953Z,0.70
2018-11-22T15:42:25.349Z,0.60
2018-11-22T15:44:52.773Z,0.60
2018-11-22T15:47:20.166Z,0.60
2018-11-22T15:49:47.649Z,0.60
2018-11-22T15:52:15.037Z,0.50
2018-11-22T15:54:42.701Z,0.50
2018-11-22T15:57:10.306Z,0.60
2018-11-22T15:59:37.712Z,0.60
2018-11-22T16:02:05.182Z,0.60
2018-11-22T16:04:32.594Z,0.60
2018-11-22T16:07:00.090Z,0.50
2018-11-22T16:09:27.538Z,0.60
2018-11-22T16:11:54.927Z,0.70
2018-11-22T16:14:22.307Z,0.70
2018-11-22T16:16:49.748Z,0.70
2018-11-22T16:19:17.160Z,0.80
2018-11-22T16:21:44.568Z,0.90
2018-11-22T16:24:12.897Z,0.90
2018-11-22T16:26:39.465Z,0.80
2018-11-22T16:29:06.879Z,0.70
2018-11-22T16:31:34.273Z,0.60
2018-11-22T16:34:01.665Z,0.60
2018-11-22T16:36:29.078Z,0.50
2018-11-22T16:38:56.483Z,0.60
2018-11-22T16:41:23.914Z,0.60
2018-11-22T16:43:51.301Z,0.70
2018-11-22T16:46:18.747Z,0.80
2018-11-22T16:48:46.179Z,0.70
2018-11-22T16:51:13.585Z,0.70
2018-11-22T16:53:40.986Z,0.60
2018-11-22T16:56:08.467Z,0.60
2018-11-22T16:58:35.862Z,0.70
2018-11-22T17:01:03.259Z,0.70
2018-11-22T17:03:30.668Z,0.60
2018-11-22T17:05:58.084Z,0.60
2018-11-22T17:08:25.525Z,0.60
2018-11-22T17:10:52.905Z,0.60
2018-11-22T17:13:20.373Z,0.50
2018-11-22T17:15:47.812Z,0.50
2018-11-22T17:18:15.201Z,0.50
2018-11-22T17:20:42.601Z,0.60
2018-11-22T17:23:10.037Z,0.50
2018-11-22T17:25:38.636Z,0.50
2018-11-22T17:28:07.264Z,0.50
2018-11-22T17:30:37.208Z,0.40
2018-11-22T17:33:04.805Z,0.40
2018-11-22T17:35:32.693Z,0.30
2018-11-22T17:38:01.188Z,0.30
2018-11-22T17:40:30.212Z,0.30
2018-11-22T17:42:57.617Z,0.40
2018-11-22T17:45:26.546Z,0.40
2018-11-22T17:47:54.129Z,0.40
2018-11-22T17:50:23.231Z,0.40
2018-11-22T17:52:50.683Z,0.40
2018-11-22T17:55:21.570Z,0.30
2018-11-22T17:57:49.009Z,0.40
2018-11-22T18:00:21.745Z,0.50
2018-11-22T18:02:50.483Z,0.40
2018-11-22T18:05:18.010Z,0.30
2018-11-22T18:07:45.442Z,0.20
2018-11-22T18:10:22.642Z,0.10
2018-11-22T18:12:50.747Z,0.20
2018-11-22T18:15:19.203Z,0.20
2018-11-22T18:17:46.756Z,0.30
2018-11-22T18:20:16.683Z,0.40
2018-11-22T18:22:44.846Z,0.50
2018-11-22T18:25:15.585Z,0.60
2018-11-22T18:27:43.056Z,0.40
2018-11-22T18:30:21.587Z,0.30
2018-11-22T18:32:50.515Z,0.20
2018-11-22T18:35:17.930Z,0.20
2018-11-22T18:37:45.385Z,0.40
2018-11-22T18:40:15.049Z,0.30
2018-11-22T18:42:43.000Z,0.30
2018-11-22T18:45:12.298Z,0.40
2018-11-22T18:47:40.375Z,0.40
2018-11-22T18:50:15.785Z,0.30
2018-11-22T18:52:43.174Z,0.50
2018-11-22T18:55:10.935Z,0.70
2018-11-22T18:57:38.649Z,0.70
2018-11-22T19:00:10.237Z,0.60
2018-11-22T19:02:37.762Z,0.30
2018-11-22T19:05:06.359Z,0.10
2018-11-22T19:07:33.483Z,0.30
2018-11-22T19:10:00.914Z,0.30
2018-11-22T19:12:28.323Z,0.20
2018-11-22T19:14:55.712Z,0.10
2018-11-22T19:17:23.117Z,0.10
2018-11-22T19:19:50.579Z,0.10
2018-11-22T19:22:18.070Z,0.20
2018-11-22T19:24:45.674Z,0.20
2018-11-22T19:27:13.128Z,0.10
2018-11-22T19:29:40.529Z,0.10
2018-11-22T19:32:07.967Z,0.10
2018-11-22T19:34:35.376Z,0.10
2018-11-22T19:37:02.860Z,0.10
2018-11-22T19:39:30.258Z,0.20
2018-11-22T19:41:57.702Z,0.20
2018-11-22T19:44:25.126Z,0.10
2018-11-22T19:46:52.501Z,0.00
2018-11-22T19:49:19.946Z,0.00
2018-11-22T19:51:47.308Z,0.00
2018-11-22T19:54:14.729Z,0.10
2018-11-22T19:56:42.138Z,0.20
2018-11-22T19:59:09.521Z,0.30
2018-11-22T20:01:36.925Z,0.50
2018-11-22T20:04:04.572Z,0.50
2018-11-22T20:06:32.038Z,0.40
2018-11-22T20:08:59.456Z,0.40
2018-11-22T20:11:26.845Z,0.60
2018-11-22T20:13:54.290Z,0.50
2018-11-22T20:16:21.713Z,0.30
2018-11-22T20:18:49.107Z,0.30
2018-11-22T20:21:16.535Z,0.30
2018-11-22T20:23:43.997Z,0.20
2018-11-22T20:26:11.534Z,0.20
2018-11-22T20:28:38.930Z,0.20
2018-11-22T20:31:06.327Z,0.10
2018-11-22T20:33:33.762Z,0.00
2018-11-22T20:36:01.162Z,-0.10
2018-11-22T20:38:28.620Z,-0.20
2018-11-22T20:40:57.417Z,-0.20
2018-11-22T20:43:23.462Z,-0.20
2018-11-22T20:45:50.896Z,-0.20
2018-11-22T20:48:18.279Z,-0.20
2018-11-22T20:50:45.784Z,-0.20
2018-11-22T20:53:13.252Z,-0.20
2018-11-22T20:55:40.693Z,-0.10
2018-11-22T20:58:08.114Z,-0.10
2018-11-22T21:00:37.281Z,-0.10
2018-11-22T21:03:05.130Z,-0.20
2018-11-22T21:05:32.613Z,-0.20
2018-11-22T21:08:00.057Z,-0.20
2018-11-22T21:10:28.929Z,-0.20
2018-11-22T21:12:56.413Z,-0.20
2018-11-22T21:15:25.177Z,-0.20
2018-11-22T21:17:54.529Z,-0.20
2018-11-22T21:20:23.562Z,-0.20
2018-11-22T21:22:50.954Z,-0.10
2018-11-22T21:25:19.153Z,-0.10
2018-11-22T21:27:46.532Z,-0.10
2018-11-22T21:30:18.518Z,-0.10
2018-11-22T21:32:46.707Z,-0.10
2018-11-22T21:35:14.510Z,-0.10
2018-11-22T21:37:42.257Z,-0.10
2018-11-22T21:40:10.210Z,-0.10
2018-11-22T21:42:37.998Z,-0.10
2018-11-22T21:45:07.831Z,-0.10
2018-11-22T21:47:35.217Z,-0.10
2018-11-22T21:50:02.670Z,-0.10
2018-11-22T21:52:30.070Z,-0.20
2018-11-22T21:54:57.505Z,-0.10
2018-11-22T21:57:24.898Z,-0.10
2018-11-22T21:59:52.315Z,-0.20
2018-11-22T22:02:19.741Z,-0.20
2018-11-22T22:04:47.177Z,-0.20
2018-11-22T22:07:14.580Z,-0.20
2018-11-22T22:09:41.982Z,-0.10
2018-11-22T22:12:09.449Z,-0.10
2018-11-22T22:14:36.841Z,0.10
2018-11-22T22:17:04.598Z,0.10
2018-11-22T22:19:32.018Z,0.10
2018-11-22T22:21:59.435Z,0.10
2018-11-22T22:24:26.835Z,0.20
2018-11-22T22:26:54.212Z,0.30
2018-11-22T22:29:22.578Z,0.20
2018-11-22T22:31:49.962Z,0.20
2018-11-22T22:34:17.585Z,0.10
2018-11-22T22:36:45.031Z,0.20
2018-11-22T22:39:12.608Z,0.30
2018-11-22T22:41:39.987Z,0.30
2018-11-22T22:44:07.465Z,0.20
2018-11-22T22:46:34.873Z,0.20
2018-11-22T22:49:02.283Z,0.20
2018-11-22T22:51:29.793Z,0.30
2018-11-22T22:53:57.193Z,0.20
2018-11-22T22:56:24.581Z,0.10
2018-11-22T22:58:52.022Z,0.20
2018-11-22T23:01:19.454Z,0.20
2018-11-22T23:03:46.964Z,0.10
2018-11-22T23:06:14.397Z,0.20
2018-11-22T23:08:41.856Z,0.30
2018-11-22T23:11:09.288Z,0.20
2018-11-22T23:13:36.739Z,0.20
2018-11-22T23:16:04.195Z,0.30
2018-11-22T23:18:31.592Z,0.30
2018-11-22T23:20:59.030Z,0.40
2018-11-22T23:23:26.410Z,0.30
2018-11-22T23:25:53.876Z,0.40
2018-11-22T23:28:21.269Z,0.40
2018-11-22T23:30:48.657Z,0.40
2018-11-22T23:33:16.079Z,0.40
2018-11-22T23:35:43.467Z,0.50
2018-11-22T23:38:10.918Z,0.50
2018-11-22T23:40:38.296Z,0.40
2018-11-22T23:43:06.194Z,0.30
2018-11-22T23:45:33.543Z,0.40
2018-11-22T23:48:00.954Z,0.40
2018-11-22T23:50:29.663Z,0.50
2018-11-22T23:52:58.084Z,0.50
2018-11-22T23:55:25.510Z,0.50
2018-11-22T23:57:53.025Z,0.50
